sensor_id;sensor_type;location;lat;lon;timestamp;temperature;humidity
26408;DHT22;14583;43.604;1.364;2022-08-05T00:01:01;29.10;85.80
26408;DHT22;14583;43.604;1.364;2022-08-05T00:03:27;29.10;85.90
26408;DHT22;14583;43.604;1.364;2022-08-05T00:05:53;29.10;86.30
26408;DHT22;14583;43.604;1.364;2022-08-05T00:08:18;29.20;85.70
26408;DHT22;14583;43.604;1.364;2022-08-05T00:10:44;29.40;85.30
26408;DHT22;14583;43.604;1.364;2022-08-05T00:13:10;29.50;85.00
26408;DHT22;14583;43.604;1.364;2022-08-05T00:15:36;29.40;85.20
26408;DHT22;14583;43.604;1.364;2022-08-05T00:18:02;29.40;85.00
26408;DHT22;14583;43.604;1.364;2022-08-05T00:20:27;29.30;86.00
26408;DHT22;14583;43.604;1.364;2022-08-05T00:22:53;29.20;85.60
26408;DHT22;14583;43.604;1.364;2022-08-05T00:25:18;29.10;86.30
26408;DHT22;14583;43.604;1.364;2022-08-05T00:27:44;29.00;86.00
26408;DHT22;14583;43.604;1.364;2022-08-05T00:30:10;29.10;85.90
26408;DHT22;14583;43.604;1.364;2022-08-05T00:32:36;29.10;85.80
26408;DHT22;14583;43.604;1.364;2022-08-05T00:35:01;28.90;86.20
26408;DHT22;14583;43.604;1.364;2022-08-05T00:37:27;29.00;85.80
26408;DHT22;14583;43.604;1.364;2022-08-05T00:39:53;28.80;86.30
26408;DHT22;14583;43.604;1.364;2022-08-05T00:42:35;28.70;87.00
26408;DHT22;14583;43.604;1.364;2022-08-05T00:45:03;28.80;86.90
26408;DHT22;14583;43.604;1.364;2022-08-05T00:47:29;28.90;86.40
26408;DHT22;14583;43.604;1.364;2022-08-05T00:49:55;28.70;86.70
26408;DHT22;14583;43.604;1.364;2022-08-05T00:52:21;28.60;87.20
26408;DHT22;14583;43.604;1.364;2022-08-05T00:54:47;28.50;87.60
26408;DHT22;14583;43.604;1.364;2022-08-05T00:57:13;28.40;88.10
26408;DHT22;14583;43.604;1.364;2022-08-05T00:59:38;28.30;88.20
26408;DHT22;14583;43.604;1.364;2022-08-05T01:02:04;28.30;88.10
26408;DHT22;14583;43.604;1.364;2022-08-05T01:04:30;28.20;88.20
26408;DHT22;14583;43.604;1.364;2022-08-05T01:06:55;28.20;88.40
26408;DHT22;14583;43.604;1.364;2022-08-05T01:09:21;28.30;88.40
26408;DHT22;14583;43.604;1.364;2022-08-05T01:11:52;28.00;88.70
26408;DHT22;14583;43.604;1.364;2022-08-05T01:14:51;27.90;88.90
26408;DHT22;14583;43.604;1.364;2022-08-05T01:19:54;27.90;89.00
26408;DHT22;14583;43.604;1.364;2022-08-05T01:28:34;27.70;88.90
26408;DHT22;14583;43.604;1.364;2022-08-05T01:31:38;27.70;87.90
26408;DHT22;14583;43.604;1.364;2022-08-05T01:34:21;27.30;86.00
26408;DHT22;14583;43.604;1.364;2022-08-05T01:36:57;27.40;86.50
26408;DHT22;14583;43.604;1.364;2022-08-05T01:39:27;27.40;86.50
26408;DHT22;14583;43.604;1.364;2022-08-05T01:41:54;27.40;85.70
26408;DHT22;14583;43.604;1.364;2022-08-05T01:44:22;27.40;86.50
26408;DHT22;14583;43.604;1.364;2022-08-05T01:46:49;27.40;86.30
26408;DHT22;14583;43.604;1.364;2022-08-05T01:49:19;27.40;86.50
26408;DHT22;14583;43.604;1.364;2022-08-05T01:51:46;27.30;87.40
26408;DHT22;14583;43.604;1.364;2022-08-05T01:54:15;27.30;87.50
26408;DHT22;14583;43.604;1.364;2022-08-05T01:56:42;27.30;87.80
26408;DHT22;14583;43.604;1.364;2022-08-05T01:59:12;27.20;89.00
26408;DHT22;14583;43.604;1.364;2022-08-05T02:01:40;27.00;89.00
26408;DHT22;14583;43.604;1.364;2022-08-05T02:04:08;27.00;89.50
26408;DHT22;14583;43.604;1.364;2022-08-05T02:06:35;27.10;89.30
26408;DHT22;14583;43.604;1.364;2022-08-05T02:09:01;27.20;88.90
26408;DHT22;14583;43.604;1.364;2022-08-05T02:11:41;26.90;90.00
26408;DHT22;14583;43.604;1.364;2022-08-05T02:14:16;26.90;90.10
26408;DHT22;14583;43.604;1.364;2022-08-05T02:16:54;27.00;89.60
26408;DHT22;14583;43.604;1.364;2022-08-05T02:19:29;26.90;90.10
26408;DHT22;14583;43.604;1.364;2022-08-05T02:22:14;26.70;89.80
26408;DHT22;14583;43.604;1.364;2022-08-05T02:24:45;26.50;90.50
26408;DHT22;14583;43.604;1.364;2022-08-05T02:27:12;26.50;90.60
26408;DHT22;14583;43.604;1.364;2022-08-05T02:29:40;26.50;90.60
26408;DHT22;14583;43.604;1.364;2022-08-05T02:32:08;26.50;90.70
26408;DHT22;14583;43.604;1.364;2022-08-05T02:34:35;26.50;90.70
26408;DHT22;14583;43.604;1.364;2022-08-05T02:37:04;26.60;90.40
26408;DHT22;14583;43.604;1.364;2022-08-05T02:39:35;26.50;90.60
26408;DHT22;14583;43.604;1.364;2022-08-05T02:42:02;26.60;90.60
26408;DHT22;14583;43.604;1.364;2022-08-05T02:44:30;26.40;90.80
26408;DHT22;14583;43.604;1.364;2022-08-05T02:46:57;26.40;91.10
26408;DHT22;14583;43.604;1.364;2022-08-05T02:49:25;26.40;91.20
26408;DHT22;14583;43.604;1.364;2022-08-05T02:51:52;26.10;91.80
26408;DHT22;14583;43.604;1.364;2022-08-05T02:54:20;26.30;91.70
26408;DHT22;14583;43.604;1.364;2022-08-05T02:56:46;26.40;91.70
26408;DHT22;14583;43.604;1.364;2022-08-05T02:59:16;26.30;91.80
26408;DHT22;14583;43.604;1.364;2022-08-05T03:01:43;26.50;91.80
26408;DHT22;14583;43.604;1.364;2022-08-05T03:04:14;26.50;91.70
26408;DHT22;14583;43.604;1.364;2022-08-05T03:06:40;26.40;91.90
26408;DHT22;14583;43.604;1.364;2022-08-05T03:09:07;26.20;92.50
26408;DHT22;14583;43.604;1.364;2022-08-05T03:11:35;26.00;92.60
26408;DHT22;14583;43.604;1.364;2022-08-05T03:14:01;26.10;92.90
26408;DHT22;14583;43.604;1.364;2022-08-05T03:16:27;26.00;92.90
26408;DHT22;14583;43.604;1.364;2022-08-05T03:18:53;26.00;93.00
26408;DHT22;14583;43.604;1.364;2022-08-05T03:21:18;26.00;93.30
26408;DHT22;14583;43.604;1.364;2022-08-05T03:23:44;26.20;92.80
26408;DHT22;14583;43.604;1.364;2022-08-05T03:26:10;26.10;93.10
26408;DHT22;14583;43.604;1.364;2022-08-05T03:28:36;26.20;92.90
26408;DHT22;14583;43.604;1.364;2022-08-05T03:31:03;26.10;93.20
26408;DHT22;14583;43.604;1.364;2022-08-05T03:33:30;26.20;93.10
26408;DHT22;14583;43.604;1.364;2022-08-05T03:35:57;25.80;93.80
26408;DHT22;14583;43.604;1.364;2022-08-05T03:38:23;26.10;93.70
26408;DHT22;14583;43.604;1.364;2022-08-05T03:40:50;26.20;93.40
26408;DHT22;14583;43.604;1.364;2022-08-05T03:43:18;26.00;93.70
26408;DHT22;14583;43.604;1.364;2022-08-05T03:45:45;25.90;94.00
26408;DHT22;14583;43.604;1.364;2022-08-05T03:48:11;25.90;93.90
26408;DHT22;14583;43.604;1.364;2022-08-05T03:51:10;25.80;94.30
26408;DHT22;14583;43.604;1.364;2022-08-05T03:53:41;26.10;93.90
26408;DHT22;14583;43.604;1.364;2022-08-05T03:56:30;25.90;94.40
26408;DHT22;14583;43.604;1.364;2022-08-05T03:59:00;25.90;94.80
26408;DHT22;14583;43.604;1.364;2022-08-05T04:01:29;25.90;94.50
26408;DHT22;14583;43.604;1.364;2022-08-05T04:03:57;26.00;94.40
26408;DHT22;14583;43.604;1.364;2022-08-05T04:06:24;26.10;94.00
26408;DHT22;14583;43.604;1.364;2022-08-05T04:08:50;26.10;94.10
26408;DHT22;14583;43.604;1.364;2022-08-05T04:11:17;26.10;94.10
26408;DHT22;14583;43.604;1.364;2022-08-05T04:13:43;26.00;94.20
26408;DHT22;14583;43.604;1.364;2022-08-05T04:16:11;25.80;94.60
26408;DHT22;14583;43.604;1.364;2022-08-05T04:18:37;25.90;94.50
26408;DHT22;14583;43.604;1.364;2022-08-05T04:21:05;25.90;94.40
26408;DHT22;14583;43.604;1.364;2022-08-05T04:23:32;25.90;94.60
26408;DHT22;14583;43.604;1.364;2022-08-05T04:25:59;26.00;94.70
26408;DHT22;14583;43.604;1.364;2022-08-05T04:28:25;25.90;94.50
26408;DHT22;14583;43.604;1.364;2022-08-05T04:30:50;26.10;94.00
26408;DHT22;14583;43.604;1.364;2022-08-05T04:33:16;26.00;94.20
26408;DHT22;14583;43.604;1.364;2022-08-05T04:35:42;26.10;94.10
26408;DHT22;14583;43.604;1.364;2022-08-05T04:38:08;26.00;94.30
26408;DHT22;14583;43.604;1.364;2022-08-05T04:40:39;26.00;94.30
26408;DHT22;14583;43.604;1.364;2022-08-05T04:43:04;26.10;94.10
26408;DHT22;14583;43.604;1.364;2022-08-05T04:45:31;26.00;94.70
26408;DHT22;14583;43.604;1.364;2022-08-05T04:48:11;25.90;94.80
26408;DHT22;14583;43.604;1.364;2022-08-05T04:50:42;25.90;94.80
26408;DHT22;14583;43.604;1.364;2022-08-05T04:53:09;25.90;94.70
26408;DHT22;14583;43.604;1.364;2022-08-05T04:55:36;26.00;95.20
26408;DHT22;14583;43.604;1.364;2022-08-05T04:58:07;25.90;94.80
26408;DHT22;14583;43.604;1.364;2022-08-05T05:00:34;25.90;95.10
26408;DHT22;14583;43.604;1.364;2022-08-05T05:03:01;26.00;94.90
26408;DHT22;14583;43.604;1.364;2022-08-05T05:05:27;26.00;94.70
26408;DHT22;14583;43.604;1.364;2022-08-05T05:08:04;25.90;95.00
26408;DHT22;14583;43.604;1.364;2022-08-05T05:10:32;25.90;95.10
26408;DHT22;14583;43.604;1.364;2022-08-05T05:13:01;25.80;95.30
26408;DHT22;14583;43.604;1.364;2022-08-05T05:15:27;25.90;95.20
26408;DHT22;14583;43.604;1.364;2022-08-05T05:17:53;25.80;95.00
26408;DHT22;14583;43.604;1.364;2022-08-05T05:20:19;26.10;94.50
26408;DHT22;14583;43.604;1.364;2022-08-05T05:22:44;26.00;94.70
26408;DHT22;14583;43.604;1.364;2022-08-05T05:25:10;25.90;95.00
26408;DHT22;14583;43.604;1.364;2022-08-05T05:27:38;25.80;95.10
26408;DHT22;14583;43.604;1.364;2022-08-05T05:30:04;25.80;95.10
26408;DHT22;14583;43.604;1.364;2022-08-05T05:32:30;25.80;95.30
26408;DHT22;14583;43.604;1.364;2022-08-05T05:34:56;25.70;95.30
26408;DHT22;14583;43.604;1.364;2022-08-05T05:37:21;25.80;95.40
26408;DHT22;14583;43.604;1.364;2022-08-05T05:39:47;25.80;95.40
26408;DHT22;14583;43.604;1.364;2022-08-05T05:42:13;25.80;95.30
26408;DHT22;14583;43.604;1.364;2022-08-05T05:44:38;25.80;95.30
26408;DHT22;14583;43.604;1.364;2022-08-05T05:47:04;25.90;95.30
26408;DHT22;14583;43.604;1.364;2022-08-05T05:49:30;25.90;95.30
26408;DHT22;14583;43.604;1.364;2022-08-05T05:51:55;25.80;95.30
26408;DHT22;14583;43.604;1.364;2022-08-05T05:54:21;25.80;95.30
26408;DHT22;14583;43.604;1.364;2022-08-05T05:56:47;25.90;95.20
26408;DHT22;14583;43.604;1.364;2022-08-05T05:59:13;26.00;95.20
26408;DHT22;14583;43.604;1.364;2022-08-05T06:01:40;26.00;95.40
26408;DHT22;14583;43.604;1.364;2022-08-05T06:04:07;26.00;95.90
26408;DHT22;14583;43.604;1.364;2022-08-05T06:06:34;25.90;96.00
26408;DHT22;14583;43.604;1.364;2022-08-05T06:09:01;25.70;96.40
26408;DHT22;14583;43.604;1.364;2022-08-05T06:11:27;25.70;96.40
26408;DHT22;14583;43.604;1.364;2022-08-05T06:13:52;25.70;96.40
26408;DHT22;14583;43.604;1.364;2022-08-05T06:16:18;25.70;96.80
26408;DHT22;14583;43.604;1.364;2022-08-05T06:18:44;25.70;96.70
26408;DHT22;14583;43.604;1.364;2022-08-05T06:21:10;25.80;96.80
26408;DHT22;14583;43.604;1.364;2022-08-05T06:23:35;25.80;96.60
26408;DHT22;14583;43.604;1.364;2022-08-05T06:26:01;25.70;96.80
26408;DHT22;14583;43.604;1.364;2022-08-05T06:28:27;25.70;97.00
26408;DHT22;14583;43.604;1.364;2022-08-05T06:30:52;25.70;96.90
26408;DHT22;14583;43.604;1.364;2022-08-05T06:33:18;25.70;97.20
26408;DHT22;14583;43.604;1.364;2022-08-05T06:35:44;25.60;97.30
26408;DHT22;14583;43.604;1.364;2022-08-05T06:38:09;25.70;97.40
26408;DHT22;14583;43.604;1.364;2022-08-05T06:40:35;25.70;97.00
26408;DHT22;14583;43.604;1.364;2022-08-05T06:43:00;25.80;97.00
26408;DHT22;14583;43.604;1.364;2022-08-05T06:45:26;25.80;96.80
26408;DHT22;14583;43.604;1.364;2022-08-05T06:47:52;25.70;97.20
26408;DHT22;14583;43.604;1.364;2022-08-05T06:50:18;25.60;97.60
26408;DHT22;14583;43.604;1.364;2022-08-05T06:52:43;25.50;97.80
26408;DHT22;14583;43.604;1.364;2022-08-05T06:55:09;25.60;97.70
26408;DHT22;14583;43.604;1.364;2022-08-05T06:57:35;25.60;97.80
26408;DHT22;14583;43.604;1.364;2022-08-05T07:00:01;25.60;97.60
26408;DHT22;14583;43.604;1.364;2022-08-05T07:02:28;25.60;97.90
26408;DHT22;14583;43.604;1.364;2022-08-05T07:04:54;25.60;97.80
26408;DHT22;14583;43.604;1.364;2022-08-05T07:07:20;25.60;98.00
26408;DHT22;14583;43.604;1.364;2022-08-05T07:09:46;25.60;97.80
26408;DHT22;14583;43.604;1.364;2022-08-05T07:12:12;25.60;97.70
26408;DHT22;14583;43.604;1.364;2022-08-05T07:14:57;25.60;97.70
26408;DHT22;14583;43.604;1.364;2022-08-05T07:17:41;25.60;97.70
26408;DHT22;14583;43.604;1.364;2022-08-05T07:20:07;25.60;97.90
26408;DHT22;14583;43.604;1.364;2022-08-05T07:22:33;25.60;97.80
26408;DHT22;14583;43.604;1.364;2022-08-05T07:25:00;25.60;97.80
26408;DHT22;14583;43.604;1.364;2022-08-05T07:27:26;25.60;98.10
26408;DHT22;14583;43.604;1.364;2022-08-05T07:29:51;25.70;97.90
26408;DHT22;14583;43.604;1.364;2022-08-05T07:32:17;25.50;98.00
26408;DHT22;14583;43.604;1.364;2022-08-05T07:34:43;25.50;98.20
26408;DHT22;14583;43.604;1.364;2022-08-05T07:37:11;25.30;98.70
26408;DHT22;14583;43.604;1.364;2022-08-05T07:39:37;25.20;99.00
26408;DHT22;14583;43.604;1.364;2022-08-05T07:42:03;25.20;98.90
26408;DHT22;14583;43.604;1.364;2022-08-05T07:44:29;25.30;98.90
26408;DHT22;14583;43.604;1.364;2022-08-05T07:46:54;25.40;98.60
26408;DHT22;14583;43.604;1.364;2022-08-05T07:49:23;25.40;98.80
26408;DHT22;14583;43.604;1.364;2022-08-05T07:51:49;25.20;99.10
26408;DHT22;14583;43.604;1.364;2022-08-05T07:54:15;25.10;99.30
26408;DHT22;14583;43.604;1.364;2022-08-05T07:56:40;25.20;99.50
26408;DHT22;14583;43.604;1.364;2022-08-05T07:59:06;25.40;99.20
26408;DHT22;14583;43.604;1.364;2022-08-05T08:01:32;25.40;98.70
26408;DHT22;14583;43.604;1.364;2022-08-05T08:03:57;25.50;99.10
26408;DHT22;14583;43.604;1.364;2022-08-05T08:06:23;25.50;98.40
26408;DHT22;14583;43.604;1.364;2022-08-05T08:08:49;25.50;98.30
26408;DHT22;14583;43.604;1.364;2022-08-05T08:11:14;25.60;98.30
26408;DHT22;14583;43.604;1.364;2022-08-05T08:13:41;25.50;98.10
26408;DHT22;14583;43.604;1.364;2022-08-05T08:16:07;25.60;98.20
26408;DHT22;14583;43.604;1.364;2022-08-05T08:18:33;25.60;98.20
26408;DHT22;14583;43.604;1.364;2022-08-05T08:20:58;25.50;98.20
26408;DHT22;14583;43.604;1.364;2022-08-05T08:23:24;25.50;98.60
26408;DHT22;14583;43.604;1.364;2022-08-05T08:25:50;25.60;98.30
26408;DHT22;14583;43.604;1.364;2022-08-05T08:28:15;25.70;97.90
26408;DHT22;14583;43.604;1.364;2022-08-05T08:30:41;25.80;97.60
26408;DHT22;14583;43.604;1.364;2022-08-05T08:33:10;25.70;98.30
26408;DHT22;14583;43.604;1.364;2022-08-05T08:35:37;25.60;98.20
26408;DHT22;14583;43.604;1.364;2022-08-05T08:38:03;25.60;97.90
26408;DHT22;14583;43.604;1.364;2022-08-05T08:40:32;25.60;98.40
26408;DHT22;14583;43.604;1.364;2022-08-05T08:42:59;25.70;98.30
26408;DHT22;14583;43.604;1.364;2022-08-05T08:45:29;25.60;98.30
26408;DHT22;14583;43.604;1.364;2022-08-05T08:47:55;25.70;98.60
26408;DHT22;14583;43.604;1.364;2022-08-05T08:50:22;25.50;98.70
26408;DHT22;14583;43.604;1.364;2022-08-05T08:53:01;25.50;98.90
26408;DHT22;14583;43.604;1.364;2022-08-05T08:55:27;25.70;98.30
26408;DHT22;14583;43.604;1.364;2022-08-05T08:57:53;25.70;98.60
26408;DHT22;14583;43.604;1.364;2022-08-05T09:00:19;25.70;98.20
26408;DHT22;14583;43.604;1.364;2022-08-05T09:02:46;25.70;98.10
26408;DHT22;14583;43.604;1.364;2022-08-05T09:05:12;25.80;98.30
26408;DHT22;14583;43.604;1.364;2022-08-05T09:07:38;25.90;98.40
26408;DHT22;14583;43.604;1.364;2022-08-05T09:10:04;26.00;97.70
26408;DHT22;14583;43.604;1.364;2022-08-05T09:12:30;26.00;97.70
26408;DHT22;14583;43.604;1.364;2022-08-05T09:14:55;26.10;97.90
26408;DHT22;14583;43.604;1.364;2022-08-05T09:17:21;26.20;97.70
26408;DHT22;14583;43.604;1.364;2022-08-05T09:19:47;26.20;97.30
26408;DHT22;14583;43.604;1.364;2022-08-05T09:22:13;26.20;97.60
26408;DHT22;14583;43.604;1.364;2022-08-05T09:24:39;26.30;97.50
26408;DHT22;14583;43.604;1.364;2022-08-05T09:27:08;26.20;97.10
26408;DHT22;14583;43.604;1.364;2022-08-05T09:29:42;26.30;97.00
26408;DHT22;14583;43.604;1.364;2022-08-05T09:32:10;26.20;97.10
26408;DHT22;14583;43.604;1.364;2022-08-05T09:35:23;26.40;96.40
26408;DHT22;14583;43.604;1.364;2022-08-05T09:37:51;26.70;96.60
26408;DHT22;14583;43.604;1.364;2022-08-05T09:40:33;26.80;96.00
26408;DHT22;14583;43.604;1.364;2022-08-05T09:42:59;26.90;95.80
26408;DHT22;14583;43.604;1.364;2022-08-05T09:45:36;27.00;95.20
26408;DHT22;14583;43.604;1.364;2022-08-05T09:48:41;27.10;95.40
26408;DHT22;14583;43.604;1.364;2022-08-05T09:51:08;27.20;94.80
26408;DHT22;14583;43.604;1.364;2022-08-05T09:53:47;27.20;94.00
26408;DHT22;14583;43.604;1.364;2022-08-05T09:56:26;27.20;93.60
26408;DHT22;14583;43.604;1.364;2022-08-05T09:59:07;27.20;94.00
26408;DHT22;14583;43.604;1.364;2022-08-05T10:01:35;27.30;93.60
26408;DHT22;14583;43.604;1.364;2022-08-05T10:04:09;27.40;93.20
26408;DHT22;14583;43.604;1.364;2022-08-05T10:06:54;27.60;93.40
26408;DHT22;14583;43.604;1.364;2022-08-05T10:09:20;27.50;92.80
26408;DHT22;14583;43.604;1.364;2022-08-05T10:11:47;27.40;92.50
26408;DHT22;14583;43.604;1.364;2022-08-05T10:14:27;27.40;91.90
26408;DHT22;14583;43.604;1.364;2022-08-05T10:16:54;27.40;91.30
26408;DHT22;14583;43.604;1.364;2022-08-05T10:19:25;27.50;91.40
26408;DHT22;14583;43.604;1.364;2022-08-05T10:21:51;27.50;90.80
26408;DHT22;14583;43.604;1.364;2022-08-05T10:24:18;27.60;90.80
26408;DHT22;14583;43.604;1.364;2022-08-05T10:26:46;27.70;91.30
26408;DHT22;14583;43.604;1.364;2022-08-05T10:29:12;27.90;91.10
26408;DHT22;14583;43.604;1.364;2022-08-05T10:31:41;28.00;90.30
26408;DHT22;14583;43.604;1.364;2022-08-05T10:34:08;27.90;90.40
26408;DHT22;14583;43.604;1.364;2022-08-05T10:36:35;27.70;90.30
26408;DHT22;14583;43.604;1.364;2022-08-05T10:39:05;27.60;90.50
26408;DHT22;14583;43.604;1.364;2022-08-05T10:41:39;27.70;91.10
26408;DHT22;14583;43.604;1.364;2022-08-05T10:44:10;27.80;90.60
26408;DHT22;14583;43.604;1.364;2022-08-05T10:46:54;27.70;90.40
26408;DHT22;14583;43.604;1.364;2022-08-05T10:49:22;27.90;90.00
26408;DHT22;14583;43.604;1.364;2022-08-05T10:51:51;28.10;89.50
26408;DHT22;14583;43.604;1.364;2022-08-05T10:54:22;28.30;89.10
26408;DHT22;14583;43.604;1.364;2022-08-05T10:56:53;28.40;87.30
26408;DHT22;14583;43.604;1.364;2022-08-05T10:59:29;28.50;87.50
26408;DHT22;14583;43.604;1.364;2022-08-05T11:02:12;28.40;87.70
26408;DHT22;14583;43.604;1.364;2022-08-05T11:04:43;28.20;87.90
26408;DHT22;14583;43.604;1.364;2022-08-05T11:07:09;28.20;89.10
26408;DHT22;14583;43.604;1.364;2022-08-05T11:09:52;28.20;88.80
26408;DHT22;14583;43.604;1.364;2022-08-05T11:17:47;27.90;89.10
26408;DHT22;14583;43.604;1.364;2022-08-05T11:20:42;27.90;89.20
26408;DHT22;14583;43.604;1.364;2022-08-05T11:23:27;28.00;88.50
26408;DHT22;14583;43.604;1.364;2022-08-05T11:26:09;28.10;88.20
26408;DHT22;14583;43.604;1.364;2022-08-05T11:36:04;28.50;86.30
26408;DHT22;14583;43.604;1.364;2022-08-05T11:41:22;28.50;85.40
26408;DHT22;14583;43.604;1.364;2022-08-05T11:48:58;28.80;84.50
26408;DHT22;14583;43.604;1.364;2022-08-05T11:51:25;28.70;84.50
26408;DHT22;14583;43.604;1.364;2022-08-05T11:53:52;28.70;85.40
26408;DHT22;14583;43.604;1.364;2022-08-05T11:56:18;28.70;85.80
26408;DHT22;14583;43.604;1.364;2022-08-05T11:58:46;28.60;85.30
26408;DHT22;14583;43.604;1.364;2022-08-05T12:01:14;28.70;84.10
26408;DHT22;14583;43.604;1.364;2022-08-05T12:06:06;28.70;84.40
26408;DHT22;14583;43.604;1.364;2022-08-05T12:08:38;28.80;84.30
26408;DHT22;14583;43.604;1.364;2022-08-05T12:11:04;28.70;83.70
26408;DHT22;14583;43.604;1.364;2022-08-05T12:13:35;28.60;84.20
26408;DHT22;14583;43.604;1.364;2022-08-05T12:16:03;28.60;85.00
26408;DHT22;14583;43.604;1.364;2022-08-05T12:18:33;28.80;84.30
26408;DHT22;14583;43.604;1.364;2022-08-05T12:21:13;28.70;84.50
26408;DHT22;14583;43.604;1.364;2022-08-05T12:23:39;28.80;83.80
26408;DHT22;14583;43.604;1.364;2022-08-05T12:26:05;28.90;83.60
26408;DHT22;14583;43.604;1.364;2022-08-05T12:28:35;28.90;83.50
26408;DHT22;14583;43.604;1.364;2022-08-05T12:31:02;29.10;83.80
26408;DHT22;14583;43.604;1.364;2022-08-05T12:33:28;29.20;83.40
26408;DHT22;14583;43.604;1.364;2022-08-05T12:35:55;29.20;82.80
26408;DHT22;14583;43.604;1.364;2022-08-05T12:38:21;29.10;82.80
26408;DHT22;14583;43.604;1.364;2022-08-05T12:40:48;29.10;83.40
26408;DHT22;14583;43.604;1.364;2022-08-05T12:43:14;29.20;83.40
26408;DHT22;14583;43.604;1.364;2022-08-05T12:45:54;29.20;82.90
26408;DHT22;14583;43.604;1.364;2022-08-05T12:48:21;29.10;82.20
26408;DHT22;14583;43.604;1.364;2022-08-05T12:51:11;29.10;82.20
26408;DHT22;14583;43.604;1.364;2022-08-05T12:53:43;29.10;82.60
26408;DHT22;14583;43.604;1.364;2022-08-05T12:56:21;29.20;83.00
26408;DHT22;14583;43.604;1.364;2022-08-05T12:59:17;29.20;83.80
26408;DHT22;14583;43.604;1.364;2022-08-05T13:01:44;29.10;83.00
26408;DHT22;14583;43.604;1.364;2022-08-05T13:04:11;29.20;83.30
26408;DHT22;14583;43.604;1.364;2022-08-05T13:06:39;29.30;82.10
26408;DHT22;14583;43.604;1.364;2022-08-05T13:09:07;29.50;82.00
26408;DHT22;14583;43.604;1.364;2022-08-05T13:11:37;29.60;80.90
26408;DHT22;14583;43.604;1.364;2022-08-05T13:14:18;29.60;81.00
26408;DHT22;14583;43.604;1.364;2022-08-05T13:16:56;29.50;81.40
26408;DHT22;14583;43.604;1.364;2022-08-05T13:19:25;29.70;80.50
26408;DHT22;14583;43.604;1.364;2022-08-05T13:21:52;29.90;80.30
26408;DHT22;14583;43.604;1.364;2022-08-05T13:24:20;30.10;79.30
26408;DHT22;14583;43.604;1.364;2022-08-05T13:26:46;30.20;79.40
26408;DHT22;14583;43.604;1.364;2022-08-05T13:29:12;30.20;78.80
26408;DHT22;14583;43.604;1.364;2022-08-05T13:31:39;30.10;79.40
26408;DHT22;14583;43.604;1.364;2022-08-05T13:34:05;30.20;80.00
26408;DHT22;14583;43.604;1.364;2022-08-05T13:36:31;30.10;79.70
26408;DHT22;14583;43.604;1.364;2022-08-05T13:38:59;30.10;79.80
26408;DHT22;14583;43.604;1.364;2022-08-05T13:41:25;30.10;79.00
26408;DHT22;14583;43.604;1.364;2022-08-05T13:43:50;30.20;78.50
26408;DHT22;14583;43.604;1.364;2022-08-05T13:46:16;30.20;78.80
26408;DHT22;14583;43.604;1.364;2022-08-05T13:48:42;30.30;78.10
26408;DHT22;14583;43.604;1.364;2022-08-05T13:51:12;30.40;78.00
26408;DHT22;14583;43.604;1.364;2022-08-05T13:53:41;30.70;77.50
26408;DHT22;14583;43.604;1.364;2022-08-05T13:56:07;30.60;77.20
26408;DHT22;14583;43.604;1.364;2022-08-05T13:58:33;30.60;78.00
26408;DHT22;14583;43.604;1.364;2022-08-05T14:01:00;30.70;77.80
26408;DHT22;14583;43.604;1.364;2022-08-05T14:03:25;30.80;76.80
26408;DHT22;14583;43.604;1.364;2022-08-05T14:05:54;30.90;77.10
26408;DHT22;14583;43.604;1.364;2022-08-05T14:08:20;31.00;76.50
26408;DHT22;14583;43.604;1.364;2022-08-05T14:10:46;31.10;76.10
26408;DHT22;14583;43.604;1.364;2022-08-05T14:13:12;31.50;75.50
26408;DHT22;14583;43.604;1.364;2022-08-05T14:15:38;31.60;75.10
26408;DHT22;14583;43.604;1.364;2022-08-05T14:18:04;31.40;75.20
26408;DHT22;14583;43.604;1.364;2022-08-05T14:20:30;31.40;76.60
26408;DHT22;14583;43.604;1.364;2022-08-05T14:22:59;31.40;75.50
26408;DHT22;14583;43.604;1.364;2022-08-05T14:25:25;31.40;75.20
26408;DHT22;14583;43.604;1.364;2022-08-05T14:27:51;31.40;75.30
26408;DHT22;14583;43.604;1.364;2022-08-05T14:30:18;31.30;74.70
26408;DHT22;14583;43.604;1.364;2022-08-05T14:32:44;31.30;75.70
26408;DHT22;14583;43.604;1.364;2022-08-05T14:35:10;31.40;75.10
26408;DHT22;14583;43.604;1.364;2022-08-05T14:37:39;31.60;74.60
26408;DHT22;14583;43.604;1.364;2022-08-05T14:40:05;31.60;74.40
26408;DHT22;14583;43.604;1.364;2022-08-05T14:42:31;31.80;73.80
26408;DHT22;14583;43.604;1.364;2022-08-05T14:44:57;31.80;73.90
26408;DHT22;14583;43.604;1.364;2022-08-05T14:47:23;31.90;72.80
26408;DHT22;14583;43.604;1.364;2022-08-05T14:49:49;31.90;72.40
26408;DHT22;14583;43.604;1.364;2022-08-05T14:52:15;32.10;72.40
26408;DHT22;14583;43.604;1.364;2022-08-05T14:54:40;32.20;72.00
26408;DHT22;14583;43.604;1.364;2022-08-05T14:57:07;32.30;72.10
26408;DHT22;14583;43.604;1.364;2022-08-05T14:59:35;32.30;71.40
26408;DHT22;14583;43.604;1.364;2022-08-05T15:02:03;32.30;71.20
26408;DHT22;14583;43.604;1.364;2022-08-05T15:04:29;32.30;70.80
26408;DHT22;14583;43.604;1.364;2022-08-05T15:06:57;32.30;70.90
26408;DHT22;14583;43.604;1.364;2022-08-05T15:09:23;32.30;71.30
26408;DHT22;14583;43.604;1.364;2022-08-05T15:11:48;32.40;71.50
26408;DHT22;14583;43.604;1.364;2022-08-05T15:14:14;32.50;70.60
26408;DHT22;14583;43.604;1.364;2022-08-05T15:16:40;32.70;70.40
26408;DHT22;14583;43.604;1.364;2022-08-05T15:19:06;32.80;69.70
26408;DHT22;14583;43.604;1.364;2022-08-05T15:21:31;32.90;68.70
26408;DHT22;14583;43.604;1.364;2022-08-05T15:23:57;33.00;68.10
26408;DHT22;14583;43.604;1.364;2022-08-05T15:26:23;33.20;69.30
26408;DHT22;14583;43.604;1.364;2022-08-05T15:28:49;33.20;68.10
26408;DHT22;14583;43.604;1.364;2022-08-05T15:31:14;33.00;68.00
26408;DHT22;14583;43.604;1.364;2022-08-05T15:33:40;33.20;67.70
26408;DHT22;14583;43.604;1.364;2022-08-05T15:36:06;33.40;67.80
26408;DHT22;14583;43.604;1.364;2022-08-05T15:38:32;33.60;67.20
26408;DHT22;14583;43.604;1.364;2022-08-05T15:40:58;33.60;67.30
26408;DHT22;14583;43.604;1.364;2022-08-05T15:43:24;33.80;66.80
26408;DHT22;14583;43.604;1.364;2022-08-05T15:45:50;33.70;66.10
26408;DHT22;14583;43.604;1.364;2022-08-05T15:48:17;33.90;66.10
26408;DHT22;14583;43.604;1.364;2022-08-05T15:50:46;34.10;65.40
26408;DHT22;14583;43.604;1.364;2022-08-05T15:53:13;34.20;66.40
26408;DHT22;14583;43.604;1.364;2022-08-05T15:55:40;34.90;66.10
26408;DHT22;14583;43.604;1.364;2022-08-05T15:58:06;35.30;64.20
26408;DHT22;14583;43.604;1.364;2022-08-05T16:00:31;35.30;64.60
26408;DHT22;14583;43.604;1.364;2022-08-05T16:02:57;36.10;64.30
26408;DHT22;14583;43.604;1.364;2022-08-05T16:05:23;37.00;59.50
26408;DHT22;14583;43.604;1.364;2022-08-05T16:07:49;38.00;60.20
26408;DHT22;14583;43.604;1.364;2022-08-05T16:10:15;43.00;56.70